sensor_id;sensor_type;location;lat;lon;timestamp;temperature;humidity
25214;DHT22;13160;51.834;4.706;2024-03-17T00:06:22;8.30;99.90
25214;DHT22;13160;51.834;4.706;2024-03-17T00:10:03;8.30;99.90
25214;DHT22;13160;51.834;4.706;2024-03-17T00:13:47;8.30;99.90
25214;DHT22;13160;51.834;4.706;2024-03-17T00:17:14;8.40;99.90
25214;DHT22;13160;51.834;4.706;2024-03-17T00:20:49;8.40;99.90
25214;DHT22;13160;51.834;4.706;2024-03-17T00:24:22;8.40;99.90
25214;DHT22;13160;51.834;4.706;2024-03-17T00:27:31;8.30;99.90
25214;DHT22;13160;51.834;4.706;2024-03-17T00:39:00;8.40;99.90
25214;DHT22;13160;51.834;4.706;2024-03-17T00:42:24;8.30;99.90
25214;DHT22;13160;51.834;4.706;2024-03-17T00:45:25;8.30;99.90
25214;DHT22;13160;51.834;4.706;2024-03-17T00:48:54;8.40;99.90
25214;DHT22;13160;51.834;4.706;2024-03-17T00:53:05;8.40;99.90
25214;DHT22;13160;51.834;4.706;2024-03-17T01:08:15;8.50;99.90
25214;DHT22;13160;51.834;4.706;2024-03-17T01:12:16;8.50;99.90
25214;DHT22;13160;51.834;4.706;2024-03-17T01:19:17;8.50;99.90
25214;DHT22;13160;51.834;4.706;2024-03-17T01:22:37;8.50;99.90
25214;DHT22;13160;51.834;4.706;2024-03-17T01:26:08;8.60;99.90
25214;DHT22;13160;51.834;4.706;2024-03-17T01:33:43;8.60;99.90
25214;DHT22;13160;51.834;4.706;2024-03-17T01:37:15;8.50;99.90
25214;DHT22;13160;51.834;4.706;2024-03-17T03:59:13;8.60;99.90
25214;DHT22;13160;51.834;4.706;2024-03-17T05:15:06;8.20;99.90
25214;DHT22;13160;51.834;4.706;2024-03-17T05:25:39;8.10;99.90
25214;DHT22;13160;51.834;4.706;2024-03-17T05:29:34;8.10;99.90
25214;DHT22;13160;51.834;4.706;2024-03-17T05:39:40;8.00;99.90
25214;DHT22;13160;51.834;4.706;2024-03-17T05:47:28;8.10;99.90
25214;DHT22;13160;51.834;4.706;2024-03-17T05:51:27;8.10;99.90
25214;DHT22;13160;51.834;4.706;2024-03-17T06:22:04;8.30;99.90
25214;DHT22;13160;51.834;4.706;2024-03-17T06:26:06;8.30;99.90
25214;DHT22;13160;51.834;4.706;2024-03-17T06:30:12;8.30;99.90
25214;DHT22;13160;51.834;4.706;2024-03-17T06:33:39;8.40;99.90
25214;DHT22;13160;51.834;4.706;2024-03-17T06:45:53;8.60;99.90
25214;DHT22;13160;51.834;4.706;2024-03-17T06:49:07;8.60;99.90
25214;DHT22;13160;51.834;4.706;2024-03-17T06:55:26;8.70;99.90
25214;DHT22;13160;51.834;4.706;2024-03-17T06:59:21;8.80;99.90
25214;DHT22;13160;51.834;4.706;2024-03-17T07:02:34;8.80;99.90
25214;DHT22;13160;51.834;4.706;2024-03-17T07:06:17;8.80;99.90
25214;DHT22;13160;51.834;4.706;2024-03-17T07:09:43;8.90;99.90
25214;DHT22;13160;51.834;4.706;2024-03-17T07:12:37;9.00;99.90
25214;DHT22;13160;51.834;4.706;2024-03-17T07:15:34;8.90;99.90
25214;DHT22;13160;51.834;4.706;2024-03-17T07:18:51;9.10;99.90
25214;DHT22;13160;51.834;4.706;2024-03-17T07:21:47;9.10;99.90
25214;DHT22;13160;51.834;4.706;2024-03-17T07:24:34;9.20;99.90
25214;DHT22;13160;51.834;4.706;2024-03-17T07:27:22;9.20;99.90
25214;DHT22;13160;51.834;4.706;2024-03-17T07:29:53;9.30;99.90
25214;DHT22;13160;51.834;4.706;2024-03-17T07:32:22;9.40;99.90
25214;DHT22;13160;51.834;4.706;2024-03-17T07:34:51;9.40;99.90
25214;DHT22;13160;51.834;4.706;2024-03-17T07:49:10;9.60;99.90
25214;DHT22;13160;51.834;4.706;2024-03-17T08:46:22;10.20;99.90
25214;DHT22;13160;51.834;4.706;2024-03-17T09:10:53;10.80;99.90
25214;DHT22;13160;51.834;4.706;2024-03-17T09:13:23;10.90;99.90
25214;DHT22;13160;51.834;4.706;2024-03-17T09:15:53;11.00;99.90
25214;DHT22;13160;51.834;4.706;2024-03-17T09:18:22;11.10;99.90
25214;DHT22;13160;51.834;4.706;2024-03-17T09:20:57;11.20;99.90
25214;DHT22;13160;51.834;4.706;2024-03-17T09:34:03;11.60;99.90
25214;DHT22;13160;51.834;4.706;2024-03-17T09:43:33;11.90;99.90
25214;DHT22;13160;51.834;4.706;2024-03-17T09:46:07;12.00;99.90
25214;DHT22;13160;51.834;4.706;2024-03-17T09:48:38;12.20;99.90
25214;DHT22;13160;51.834;4.706;2024-03-17T09:51:25;12.20;99.90
25214;DHT22;13160;51.834;4.706;2024-03-17T09:54:00;12.30;99.90
25214;DHT22;13160;51.834;4.706;2024-03-17T11:07:17;13.90;99.90
25214;DHT22;13160;51.834;4.706;2024-03-17T13:45:10;16.60;99.90
25214;DHT22;13160;51.834;4.706;2024-03-17T13:47:57;16.50;99.90
25214;DHT22;13160;51.834;4.706;2024-03-17T13:50:28;16.50;99.90
25214;DHT22;13160;51.834;4.706;2024-03-17T13:53:18;16.50;99.90
25214;DHT22;13160;51.834;4.706;2024-03-17T13:56:12;16.50;99.90
25214;DHT22;13160;51.834;4.706;2024-03-17T14:06:30;16.50;99.90
25214;DHT22;13160;51.834;4.706;2024-03-17T14:20:01;16.30;99.90
25214;DHT22;13160;51.834;4.706;2024-03-17T14:22:48;16.40;99.90
25214;DHT22;13160;51.834;4.706;2024-03-17T14:25:21;16.30;99.90
25214;DHT22;13160;51.834;4.706;2024-03-17T14:27:52;16.30;99.90
25214;DHT22;13160;51.834;4.706;2024-03-17T14:30:41;16.40;99.90
25214;DHT22;13160;51.834;4.706;2024-03-17T14:33:24;16.30;99.90
25214;DHT22;13160;51.834;4.706;2024-03-17T14:36:21;16.40;99.90
25214;DHT22;13160;51.834;4.706;2024-03-17T14:39:11;16.50;99.90
25214;DHT22;13160;51.834;4.706;2024-03-17T14:42:17;16.60;99.90
25214;DHT22;13160;51.834;4.706;2024-03-17T14:45:16;16.60;99.90
25214;DHT22;13160;51.834;4.706;2024-03-17T14:48:00;16.60;99.90
25214;DHT22;13160;51.834;4.706;2024-03-17T14:51:40;16.70;99.90
25214;DHT22;13160;51.834;4.706;2024-03-17T15:00:07;16.50;99.90
25214;DHT22;13160;51.834;4.706;2024-03-17T15:33:13;15.70;99.90
25214;DHT22;13160;51.834;4.706;2024-03-17T15:36:52;15.60;99.90
25214;DHT22;13160;51.834;4.706;2024-03-17T16:01:52;15.20;99.90
25214;DHT22;13160;51.834;4.706;2024-03-17T16:07:46;15.10;99.90
25214;DHT22;13160;51.834;4.706;2024-03-17T16:10:50;15.10;99.90
25214;DHT22;13160;51.834;4.706;2024-03-17T16:16:44;15.00;99.90
25214;DHT22;13160;51.834;4.706;2024-03-17T16:19:12;15.00;99.90
25214;DHT22;13160;51.834;4.706;2024-03-17T16:22:03;14.90;99.90
25214;DHT22;13160;51.834;4.706;2024-03-17T17:16:51;14.10;99.90
25214;DHT22;13160;51.834;4.706;2024-03-17T17:23:38;14.10;99.90
25214;DHT22;13160;51.834;4.706;2024-03-17T17:27:04;14.00;99.90
25214;DHT22;13160;51.834;4.706;2024-03-17T17:29:43;13.90;99.90
25214;DHT22;13160;51.834;4.706;2024-03-17T17:32:46;13.90;99.90
25214;DHT22;13160;51.834;4.706;2024-03-17T17:35:38;13.90;99.90
25214;DHT22;13160;51.834;4.706;2024-03-17T17:42:49;13.80;99.90
25214;DHT22;13160;51.834;4.706;2024-03-17T17:45:56;13.80;99.90
25214;DHT22;13160;51.834;4.706;2024-03-17T17:48:50;13.70;99.90
25214;DHT22;13160;51.834;4.706;2024-03-17T17:51:20;13.70;99.90
25214;DHT22;13160;51.834;4.706;2024-03-17T18:12:56;13.50;99.90
25214;DHT22;13160;51.834;4.706;2024-03-17T18:58:38;13.20;99.90
25214;DHT22;13160;51.834;4.706;2024-03-17T19:01:19;13.20;99.90
25214;DHT22;13160;51.834;4.706;2024-03-17T19:56:25;12.70;99.90
25214;DHT22;13160;51.834;4.706;2024-03-17T19:59:15;12.70;99.90
25214;DHT22;13160;51.834;4.706;2024-03-17T20:01:45;12.70;99.90
25214;DHT22;13160;51.834;4.706;2024-03-17T20:04:21;12.70;99.90
25214;DHT22;13160;51.834;4.706;2024-03-17T20:07:16;12.70;99.90
25214;DHT22;13160;51.834;4.706;2024-03-17T20:09:51;12.70;99.90
25214;DHT22;13160;51.834;4.706;2024-03-17T20:12:35;12.60;99.90
25214;DHT22;13160;51.834;4.706;2024-03-17T20:15:18;12.60;99.90
25214;DHT22;13160;51.834;4.706;2024-03-17T20:17:54;12.60;99.90
25214;DHT22;13160;51.834;4.706;2024-03-17T20:20:56;12.60;99.90
25214;DHT22;13160;51.834;4.706;2024-03-17T20:24:15;12.60;99.90
25214;DHT22;13160;51.834;4.706;2024-03-17T20:27:11;12.60;99.90
25214;DHT22;13160;51.834;4.706;2024-03-17T20:30:02;12.60;99.90
25214;DHT22;13160;51.834;4.706;2024-03-17T20:32:40;12.60;99.90
25214;DHT22;13160;51.834;4.706;2024-03-17T20:35:10;12.50;99.90
25214;DHT22;13160;51.834;4.706;2024-03-17T20:37:39;12.50;99.90
25214;DHT22;13160;51.834;4.706;2024-03-17T20:40:08;12.50;99.90
25214;DHT22;13160;51.834;4.706;2024-03-17T20:42:38;12.50;99.90
25214;DHT22;13160;51.834;4.706;2024-03-17T20:45:10;12.60;99.90
25214;DHT22;13160;51.834;4.706;2024-03-17T20:47:38;12.60;99.90
25214;DHT22;13160;51.834;4.706;2024-03-17T20:50:15;12.60;99.90
25214;DHT22;13160;51.834;4.706;2024-03-17T20:52:47;12.60;99.90
25214;DHT22;13160;51.834;4.706;2024-03-17T20:55:20;12.50;99.90
25214;DHT22;13160;51.834;4.706;2024-03-17T20:57:49;12.60;99.90
25214;DHT22;13160;51.834;4.706;2024-03-17T21:00:23;12.60;99.90
25214;DHT22;13160;51.834;4.706;2024-03-17T21:02:58;12.60;99.90
25214;DHT22;13160;51.834;4.706;2024-03-17T21:05:34;12.60;99.90
25214;DHT22;13160;51.834;4.706;2024-03-17T21:08:58;12.60;99.90
25214;DHT22;13160;51.834;4.706;2024-03-17T21:11:28;12.60;99.90
25214;DHT22;13160;51.834;4.706;2024-03-17T21:13:58;12.60;99.90
25214;DHT22;13160;51.834;4.706;2024-03-17T21:16:30;12.60;99.90
25214;DHT22;13160;51.834;4.706;2024-03-17T21:19:01;12.60;99.90
25214;DHT22;13160;51.834;4.706;2024-03-17T21:21:29;12.60;99.90
25214;DHT22;13160;51.834;4.706;2024-03-17T21:23:57;12.60;99.90
25214;DHT22;13160;51.834;4.706;2024-03-17T21:26:29;12.60;99.90
25214;DHT22;13160;51.834;4.706;2024-03-17T21:29:22;12.60;99.90
25214;DHT22;13160;51.834;4.706;2024-03-17T21:32:06;12.60;99.90
25214;DHT22;13160;51.834;4.706;2024-03-17T21:34:36;12.60;99.90
25214;DHT22;13160;51.834;4.706;2024-03-17T21:37:05;12.60;99.90
25214;DHT22;13160;51.834;4.706;2024-03-17T21:39:35;12.60;99.90
25214;DHT22;13160;51.834;4.706;2024-03-17T21:42:04;12.60;99.90
25214;DHT22;13160;51.834;4.706;2024-03-17T21:44:35;12.60;99.90
25214;DHT22;13160;51.834;4.706;2024-03-17T21:47:05;12.60;99.90
25214;DHT22;13160;51.834;4.706;2024-03-17T21:49:35;12.60;99.90
25214;DHT22;13160;51.834;4.706;2024-03-17T21:55:29;12.70;99.90
25214;DHT22;13160;51.834;4.706;2024-03-17T21:58:15;12.60;99.90
25214;DHT22;13160;51.834;4.706;2024-03-17T22:00:45;12.60;99.90
25214;DHT22;13160;51.834;4.706;2024-03-17T22:06:01;12.70;99.90
25214;DHT22;13160;51.834;4.706;2024-03-17T22:12:25;12.70;99.90
25214;DHT22;13160;51.834;4.706;2024-03-17T22:14:54;12.70;99.90
25214;DHT22;13160;51.834;4.706;2024-03-17T22:17:37;12.70;99.90
25214;DHT22;13160;51.834;4.706;2024-03-17T22:47:31;12.80;99.90
25214;DHT22;13160;51.834;4.706;2024-03-17T22:50:09;12.80;99.90
25214;DHT22;13160;51.834;4.706;2024-03-17T22:56:29;12.80;99.90
25214;DHT22;13160;51.834;4.706;2024-03-17T22:59:09;12.80;99.90
25214;DHT22;13160;51.834;4.706;2024-03-17T23:01:49;12.80;99.90
25214;DHT22;13160;51.834;4.706;2024-03-17T23:04:58;12.80;99.90
25214;DHT22;13160;51.834;4.706;2024-03-17T23:08:13;12.70;99.90
25214;DHT22;13160;51.834;4.706;2024-03-17T23:11:39;12.70;99.90
25214;DHT22;13160;51.834;4.706;2024-03-17T23:17:56;12.60;99.90
25214;DHT22;13160;51.834;4.706;2024-03-17T23:21:21;12.60;99.90
25214;DHT22;13160;51.834;4.706;2024-03-17T23:28:27;12.60;99.90
25214;DHT22;13160;51.834;4.706;2024-03-17T23:32:13;12.50;99.90
25214;DHT22;13160;51.834;4.706;2024-03-17T23:36:00;12.50;99.90
